sensor_id;sensor_type;location;lat;lon;timestamp;P1;durP1;ratioP1;P2;durP2;ratioP2
5801;SDS011;2927;49.366;8.530;2023-02-28T00:00:16;1.67;;;1.17;;
5801;SDS011;2927;49.366;8.530;2023-02-28T00:02:43;1.77;;;1.13;;
5801;SDS011;2927;49.366;8.530;2023-02-28T00:05:10;3.53;;;2.37;;
5801;SDS011;2927;49.366;8.530;2023-02-28T00:07:37;1.63;;;1.00;;
5801;SDS011;2927;49.366;8.530;2023-02-28T00:10:06;1.97;;;1.40;;
5801;SDS011;2927;49.366;8.530;2023-02-28T00:12:34;1.53;;;1.43;;
5801;SDS011;2927;49.366;8.530;2023-02-28T00:14:59;1.50;;;1.40;;
5801;SDS011;2927;49.366;8.530;2023-02-28T00:17:25;1.50;;;1.40;;
5801;SDS011;2927;49.366;8.530;2023-02-28T00:19:51;1.50;;;1.40;;
5801;SDS011;2927;49.366;8.530;2023-02-28T00:22:17;1.70;;;1.20;;
5801;SDS011;2927;49.366;8.530;2023-02-28T00:24:43;1.63;;;1.33;;
5801;SDS011;2927;49.366;8.530;2023-02-28T00:27:09;2.43;;;2.23;;
5801;SDS011;2927;49.366;8.530;2023-02-28T00:29:35;2.60;;;1.27;;
5801;SDS011;2927;49.366;8.530;2023-02-28T00:32:01;2.37;;;1.63;;
5801;SDS011;2927;49.366;8.530;2023-02-28T00:34:27;3.57;;;2.00;;
5801;SDS011;2927;49.366;8.530;2023-02-28T00:36:52;2.03;;;1.37;;
5801;SDS011;2927;49.366;8.530;2023-02-28T00:39:18;3.53;;;1.50;;
5801;SDS011;2927;49.366;8.530;2023-02-28T00:41:43;3.47;;;1.47;;
5801;SDS011;2927;49.366;8.530;2023-02-28T00:44:09;4.33;;;2.23;;
5801;SDS011;2927;49.366;8.530;2023-02-28T00:46:34;4.47;;;1.77;;
5801;SDS011;2927;49.366;8.530;2023-02-28T00:49:00;1.43;;;1.33;;
5801;SDS011;2927;49.366;8.530;2023-02-28T00:51:25;1.37;;;1.27;;
5801;SDS011;2927;49.366;8.530;2023-02-28T00:53:51;4.17;;;1.97;;
5801;SDS011;2927;49.366;8.530;2023-02-28T00:56:16;5.70;;;1.50;;
5801;SDS011;2927;49.366;8.530;2023-02-28T00:58:42;2.03;;;1.30;;
5801;SDS011;2927;49.366;8.530;2023-02-28T01:01:07;1.70;;;1.33;;
5801;SDS011;2927;49.366;8.530;2023-02-28T01:03:33;3.60;;;1.83;;
5801;SDS011;2927;49.366;8.530;2023-02-28T01:05:59;1.90;;;1.17;;
5801;SDS011;2927;49.366;8.530;2023-02-28T01:08:24;4.40;;;1.77;;
5801;SDS011;2927;49.366;8.530;2023-02-28T01:10:52;5.60;;;1.90;;
5801;SDS011;2927;49.366;8.530;2023-02-28T01:13:18;6.00;;;1.97;;
5801;SDS011;2927;49.366;8.530;2023-02-28T01:15:54;4.40;;;2.03;;
5801;SDS011;2927;49.366;8.530;2023-02-28T01:18:21;2.93;;;2.00;;
5801;SDS011;2927;49.366;8.530;2023-02-28T01:20:47;5.57;;;1.87;;
5801;SDS011;2927;49.366;8.530;2023-02-28T01:23:13;8.50;;;2.53;;
5801;SDS011;2927;49.366;8.530;2023-02-28T01:25:39;3.73;;;1.90;;
5801;SDS011;2927;49.366;8.530;2023-02-28T01:28:05;5.80;;;1.97;;
5801;SDS011;2927;49.366;8.530;2023-02-28T01:30:31;2.33;;;1.40;;
5801;SDS011;2927;49.366;8.530;2023-02-28T01:32:57;3.40;;;1.50;;
5801;SDS011;2927;49.366;8.530;2023-02-28T01:35:22;5.73;;;2.07;;
5801;SDS011;2927;49.366;8.530;2023-02-28T01:37:48;2.20;;;1.83;;
5801;SDS011;2927;49.366;8.530;2023-02-28T01:40:13;4.30;;;1.73;;
5801;SDS011;2927;49.366;8.530;2023-02-28T01:42:39;3.00;;;1.80;;
5801;SDS011;2927;49.366;8.530;2023-02-28T01:45:25;5.97;;;1.90;;
5801;SDS011;2927;49.366;8.530;2023-02-28T01:47:56;4.10;;;2.10;;
5801;SDS011;2927;49.366;8.530;2023-02-28T01:50:28;2.73;;;2.10;;
5801;SDS011;2927;49.366;8.530;2023-02-28T01:52:57;10.70;;;1.60;;
5801;SDS011;2927;49.366;8.530;2023-02-28T01:55:28;5.47;;;2.23;;
5801;SDS011;2927;49.366;8.530;2023-02-28T01:57:55;4.20;;;2.23;;
5801;SDS011;2927;49.366;8.530;2023-02-28T02:00:23;7.73;;;2.70;;
5801;SDS011;2927;49.366;8.530;2023-02-28T02:02:59;2.00;;;1.57;;
5801;SDS011;2927;49.366;8.530;2023-02-28T02:05:30;8.30;;;2.97;;
5801;SDS011;2927;49.366;8.530;2023-02-28T02:07:56;2.80;;;1.60;;
5801;SDS011;2927;49.366;8.530;2023-02-28T02:13:14;3.53;;;2.60;;
5801;SDS011;2927;49.366;8.530;2023-02-28T02:16:14;3.90;;;2.17;;
5801;SDS011;2927;49.366;8.530;2023-02-28T02:21:57;3.37;;;1.80;;
5801;SDS011;2927;49.366;8.530;2023-02-28T02:27:48;2.93;;;2.20;;
5801;SDS011;2927;49.366;8.530;2023-02-28T02:38:21;4.10;;;2.10;;
5801;SDS011;2927;49.366;8.530;2023-02-28T02:41:08;6.97;;;2.17;;
5801;SDS011;2927;49.366;8.530;2023-02-28T02:46:29;3.10;;;2.40;;
5801;SDS011;2927;49.366;8.530;2023-02-28T02:48:59;8.70;;;2.47;;
5801;SDS011;2927;49.366;8.530;2023-02-28T02:51:26;8.87;;;2.40;;
5801;SDS011;2927;49.366;8.530;2023-02-28T02:53:57;9.87;;;3.33;;
5801;SDS011;2927;49.366;8.530;2023-02-28T02:56:28;11.70;;;3.40;;
5801;SDS011;2927;49.366;8.530;2023-02-28T02:58:58;3.53;;;1.93;;
5801;SDS011;2927;49.366;8.530;2023-02-28T03:01:28;6.83;;;2.83;;
5801;SDS011;2927;49.366;8.530;2023-02-28T03:03:57;6.57;;;3.63;;
5801;SDS011;2927;49.366;8.530;2023-02-28T03:06:25;5.23;;;2.70;;
5801;SDS011;2927;49.366;8.530;2023-02-28T03:08:51;5.53;;;2.73;;
5801;SDS011;2927;49.366;8.530;2023-02-28T03:11:17;4.33;;;2.27;;
5801;SDS011;2927;49.366;8.530;2023-02-28T03:19:22;14.50;;;4.10;;
5801;SDS011;2927;49.366;8.530;2023-02-28T03:22:12;6.13;;;3.13;;
5801;SDS011;2927;49.366;8.530;2023-02-28T03:27:21;3.97;;;2.10;;
5801;SDS011;2927;49.366;8.530;2023-02-28T03:30:02;7.17;;;3.20;;
5801;SDS011;2927;49.366;8.530;2023-02-28T03:32:52;6.43;;;2.30;;
5801;SDS011;2927;49.366;8.530;2023-02-28T03:35:30;4.90;;;2.67;;
5801;SDS011;2927;49.366;8.530;2023-02-28T03:38:18;3.93;;;2.60;;
5801;SDS011;2927;49.366;8.530;2023-02-28T03:40:51;3.77;;;2.27;;
5801;SDS011;2927;49.366;8.530;2023-02-28T03:43:26;3.33;;;2.43;;
5801;SDS011;2927;49.366;8.530;2023-02-28T03:45:56;4.17;;;2.27;;
5801;SDS011;2927;49.366;8.530;2023-02-28T03:48:38;3.23;;;2.40;;
5801;SDS011;2927;49.366;8.530;2023-02-28T03:51:18;4.33;;;2.50;;
5801;SDS011;2927;49.366;8.530;2023-02-28T03:53:50;3.17;;;1.90;;
5801;SDS011;2927;49.366;8.530;2023-02-28T03:56:28;2.67;;;2.30;;
5801;SDS011;2927;49.366;8.530;2023-02-28T03:59:18;7.50;;;2.93;;
5801;SDS011;2927;49.366;8.530;2023-02-28T04:01:49;3.03;;;2.63;;
5801;SDS011;2927;49.366;8.530;2023-02-28T04:04:16;4.30;;;2.37;;
5801;SDS011;2927;49.366;8.530;2023-02-28T04:06:43;2.27;;;2.07;;
5801;SDS011;2927;49.366;8.530;2023-02-28T04:09:10;5.13;;;3.13;;
5801;SDS011;2927;49.366;8.530;2023-02-28T04:11:38;3.90;;;2.77;;
5801;SDS011;2927;49.366;8.530;2023-02-28T04:14:07;3.70;;;2.80;;
5801;SDS011;2927;49.366;8.530;2023-02-28T04:16:34;7.13;;;3.00;;
5801;SDS011;2927;49.366;8.530;2023-02-28T04:19:02;2.87;;;2.60;;
5801;SDS011;2927;49.366;8.530;2023-02-28T04:21:30;3.13;;;2.57;;
5801;SDS011;2927;49.366;8.530;2023-02-28T04:23:57;3.23;;;2.93;;
5801;SDS011;2927;49.366;8.530;2023-02-28T04:26:29;4.80;;;2.70;;
5801;SDS011;2927;49.366;8.530;2023-02-28T04:28:59;5.30;;;2.63;;
5801;SDS011;2927;49.366;8.530;2023-02-28T04:31:26;3.50;;;3.20;;
5801;SDS011;2927;49.366;8.530;2023-02-28T04:33:51;5.60;;;2.60;;
5801;SDS011;2927;49.366;8.530;2023-02-28T04:36:17;3.90;;;2.73;;
5801;SDS011;2927;49.366;8.530;2023-02-28T04:38:43;4.07;;;2.47;;
5801;SDS011;2927;49.366;8.530;2023-02-28T04:41:09;4.37;;;3.00;;
5801;SDS011;2927;49.366;8.530;2023-02-28T04:43:36;5.63;;;3.10;;
5801;SDS011;2927;49.366;8.530;2023-02-28T04:46:02;11.20;;;4.00;;
5801;SDS011;2927;49.366;8.530;2023-02-28T04:48:29;8.10;;;4.60;;
5801;SDS011;2927;49.366;8.530;2023-02-28T04:51:15;4.20;;;3.70;;
5801;SDS011;2927;49.366;8.530;2023-02-28T04:53:43;5.27;;;3.40;;
5801;SDS011;2927;49.366;8.530;2023-02-28T04:56:10;3.73;;;2.87;;
5801;SDS011;2927;49.366;8.530;2023-02-28T04:58:37;5.03;;;3.90;;
5801;SDS011;2927;49.366;8.530;2023-02-28T05:01:05;4.57;;;3.57;;
5801;SDS011;2927;49.366;8.530;2023-02-28T05:03:40;5.67;;;4.00;;
5801;SDS011;2927;49.366;8.530;2023-02-28T05:06:06;6.40;;;4.33;;
5801;SDS011;2927;49.366;8.530;2023-02-28T05:08:33;6.77;;;4.00;;
5801;SDS011;2927;49.366;8.530;2023-02-28T05:10:59;5.30;;;3.20;;
5801;SDS011;2927;49.366;8.530;2023-02-28T05:13:28;8.00;;;2.73;;
5801;SDS011;2927;49.366;8.530;2023-02-28T05:15:53;7.13;;;3.90;;
5801;SDS011;2927;49.366;8.530;2023-02-28T05:18:19;5.83;;;3.30;;
5801;SDS011;2927;49.366;8.530;2023-02-28T05:20:45;5.97;;;3.17;;
5801;SDS011;2927;49.366;8.530;2023-02-28T05:23:11;5.30;;;3.77;;
5801;SDS011;2927;49.366;8.530;2023-02-28T05:25:38;4.90;;;3.40;;
5801;SDS011;2927;49.366;8.530;2023-02-28T05:28:04;10.30;;;4.00;;
5801;SDS011;2927;49.366;8.530;2023-02-28T05:30:30;4.27;;;3.40;;
5801;SDS011;2927;49.366;8.530;2023-02-28T05:32:56;5.50;;;3.30;;
5801;SDS011;2927;49.366;8.530;2023-02-28T05:35:22;4.40;;;3.50;;
5801;SDS011;2927;49.366;8.530;2023-02-28T05:37:48;7.60;;;4.40;;
5801;SDS011;2927;49.366;8.530;2023-02-28T05:40:14;4.40;;;3.07;;
5801;SDS011;2927;49.366;8.530;2023-02-28T05:42:40;5.53;;;3.03;;
5801;SDS011;2927;49.366;8.530;2023-02-28T05:45:07;7.67;;;4.10;;
5801;SDS011;2927;49.366;8.530;2023-02-28T05:47:33;4.47;;;3.43;;
5801;SDS011;2927;49.366;8.530;2023-02-28T05:49:59;6.50;;;3.50;;
5801;SDS011;2927;49.366;8.530;2023-02-28T05:52:26;8.23;;;3.67;;
5801;SDS011;2927;49.366;8.530;2023-02-28T05:54:52;5.27;;;3.37;;
5801;SDS011;2927;49.366;8.530;2023-02-28T05:57:18;4.27;;;2.97;;
5801;SDS011;2927;49.366;8.530;2023-02-28T05:59:43;4.50;;;3.30;;
5801;SDS011;2927;49.366;8.530;2023-02-28T06:02:12;7.60;;;3.50;;
5801;SDS011;2927;49.366;8.530;2023-02-28T06:04:40;5.30;;;3.70;;
5801;SDS011;2927;49.366;8.530;2023-02-28T06:07:06;8.10;;;3.83;;
5801;SDS011;2927;49.366;8.530;2023-02-28T06:09:32;4.77;;;3.40;;
5801;SDS011;2927;49.366;8.530;2023-02-28T06:11:58;3.10;;;2.53;;
5801;SDS011;2927;49.366;8.530;2023-02-28T06:14:25;3.10;;;2.47;;
5801;SDS011;2927;49.366;8.530;2023-02-28T06:16:51;4.40;;;2.67;;
5801;SDS011;2927;49.366;8.530;2023-02-28T06:19:17;4.50;;;2.30;;
5801;SDS011;2927;49.366;8.530;2023-02-28T06:21:42;9.53;;;3.30;;
5801;SDS011;2927;49.366;8.530;2023-02-28T06:24:08;5.27;;;2.97;;
5801;SDS011;2927;49.366;8.530;2023-02-28T06:26:34;4.43;;;3.40;;
5801;SDS011;2927;49.366;8.530;2023-02-28T06:29:00;6.30;;;3.80;;
5801;SDS011;2927;49.366;8.530;2023-02-28T06:31:26;5.63;;;3.30;;
5801;SDS011;2927;49.366;8.530;2023-02-28T06:33:53;6.03;;;3.03;;
5801;SDS011;2927;49.366;8.530;2023-02-28T06:36:19;3.00;;;2.63;;
5801;SDS011;2927;49.366;8.530;2023-02-28T06:38:45;3.40;;;3.03;;
5801;SDS011;2927;49.366;8.530;2023-02-28T06:41:13;4.30;;;2.97;;
5801;SDS011;2927;49.366;8.530;2023-02-28T06:43:39;4.10;;;2.70;;
5801;SDS011;2927;49.366;8.530;2023-02-28T06:46:07;5.83;;;3.27;;
5801;SDS011;2927;49.366;8.530;2023-02-28T06:48:35;3.87;;;2.83;;
5801;SDS011;2927;49.366;8.530;2023-02-28T06:51:05;3.60;;;2.77;;
5801;SDS011;2927;49.366;8.530;2023-02-28T06:53:31;3.97;;;2.80;;
5801;SDS011;2927;49.366;8.530;2023-02-28T06:55:57;6.87;;;3.23;;
5801;SDS011;2927;49.366;8.530;2023-02-28T06:58:23;4.80;;;2.83;;
5801;SDS011;2927;49.366;8.530;2023-02-28T07:00:50;5.13;;;2.93;;
5801;SDS011;2927;49.366;8.530;2023-02-28T07:03:17;2.83;;;2.63;;
5801;SDS011;2927;49.366;8.530;2023-02-28T07:05:43;4.63;;;2.77;;
5801;SDS011;2927;49.366;8.530;2023-02-28T07:08:09;5.90;;;3.57;;
5801;SDS011;2927;49.366;8.530;2023-02-28T07:10:37;8.90;;;3.67;;
5801;SDS011;2927;49.366;8.530;2023-02-28T07:13:03;4.57;;;2.40;;
5801;SDS011;2927;49.366;8.530;2023-02-28T07:15:30;5.80;;;2.93;;
5801;SDS011;2927;49.366;8.530;2023-02-28T07:17:55;6.30;;;3.03;;
5801;SDS011;2927;49.366;8.530;2023-02-28T07:20:21;12.03;;;4.43;;
5801;SDS011;2927;49.366;8.530;2023-02-28T07:22:48;3.97;;;3.20;;
5801;SDS011;2927;49.366;8.530;2023-02-28T07:25:20;9.80;;;4.57;;
5801;SDS011;2927;49.366;8.530;2023-02-28T07:27:47;6.70;;;4.30;;
5801;SDS011;2927;49.366;8.530;2023-02-28T07:30:12;11.83;;;3.50;;
5801;SDS011;2927;49.366;8.530;2023-02-28T07:32:38;5.53;;;3.67;;
5801;SDS011;2927;49.366;8.530;2023-02-28T07:35:04;8.03;;;3.60;;
5801;SDS011;2927;49.366;8.530;2023-02-28T07:37:30;4.60;;;3.70;;
5801;SDS011;2927;49.366;8.530;2023-02-28T07:40:02;4.20;;;3.43;;
5801;SDS011;2927;49.366;8.530;2023-02-28T07:42:33;4.40;;;3.20;;
5801;SDS011;2927;49.366;8.530;2023-02-28T07:45:03;6.57;;;3.50;;
5801;SDS011;2927;49.366;8.530;2023-02-28T07:47:30;6.80;;;3.50;;
5801;SDS011;2927;49.366;8.530;2023-02-28T07:49:56;4.43;;;3.07;;
5801;SDS011;2927;49.366;8.530;2023-02-28T07:52:22;8.80;;;3.70;;
5801;SDS011;2927;49.366;8.530;2023-02-28T07:54:52;6.47;;;4.10;;
5801;SDS011;2927;49.366;8.530;2023-02-28T07:57:18;6.43;;;3.77;;
5801;SDS011;2927;49.366;8.530;2023-02-28T07:59:43;8.07;;;3.30;;
5801;SDS011;2927;49.366;8.530;2023-02-28T08:02:13;5.47;;;4.97;;
5801;SDS011;2927;49.366;8.530;2023-02-28T08:04:40;8.97;;;4.00;;
5801;SDS011;2927;49.366;8.530;2023-02-28T08:07:05;7.50;;;3.40;;
5801;SDS011;2927;49.366;8.530;2023-02-28T08:09:31;9.20;;;3.90;;
5801;SDS011;2927;49.366;8.530;2023-02-28T08:11:56;4.10;;;3.53;;
5801;SDS011;2927;49.366;8.530;2023-02-28T08:14:22;5.50;;;4.10;;
5801;SDS011;2927;49.366;8.530;2023-02-28T08:16:47;7.10;;;3.73;;
5801;SDS011;2927;49.366;8.530;2023-02-28T08:19:13;6.57;;;4.20;;
5801;SDS011;2927;49.366;8.530;2023-02-28T08:21:38;4.10;;;3.50;;
5801;SDS011;2927;49.366;8.530;2023-02-28T08:24:05;5.67;;;3.67;;
5801;SDS011;2927;49.366;8.530;2023-02-28T08:26:30;6.80;;;3.40;;
5801;SDS011;2927;49.366;8.530;2023-02-28T08:28:56;6.63;;;3.47;;
5801;SDS011;2927;49.366;8.530;2023-02-28T08:31:22;7.37;;;3.67;;
5801;SDS011;2927;49.366;8.530;2023-02-28T08:33:47;5.90;;;3.40;;
5801;SDS011;2927;49.366;8.530;2023-02-28T08:36:15;6.67;;;3.97;;
5801;SDS011;2927;49.366;8.530;2023-02-28T08:38:41;5.80;;;4.07;;
5801;SDS011;2927;49.366;8.530;2023-02-28T08:41:09;6.63;;;4.27;;
5801;SDS011;2927;49.366;8.530;2023-02-28T08:43:37;7.17;;;4.13;;
5801;SDS011;2927;49.366;8.530;2023-02-28T08:46:04;3.53;;;3.00;;
5801;SDS011;2927;49.366;8.530;2023-02-28T08:48:30;6.53;;;4.03;;
5801;SDS011;2927;49.366;8.530;2023-02-28T08:50:58;3.47;;;3.00;;
5801;SDS011;2927;49.366;8.530;2023-02-28T08:53:25;7.50;;;3.33;;
5801;SDS011;2927;49.366;8.530;2023-02-28T08:55:57;3.40;;;3.10;;
5801;SDS011;2927;49.366;8.530;2023-02-28T08:58:27;6.00;;;3.80;;
5801;SDS011;2927;49.366;8.530;2023-02-28T09:00:54;4.77;;;3.53;;
5801;SDS011;2927;49.366;8.530;2023-02-28T09:03:20;8.03;;;4.30;;
5801;SDS011;2927;49.366;8.530;2023-02-28T09:05:56;6.30;;;3.43;;
5801;SDS011;2927;49.366;8.530;2023-02-28T09:08:26;3.50;;;3.20;;
5801;SDS011;2927;49.366;8.530;2023-02-28T09:10:53;4.87;;;2.80;;
5801;SDS011;2927;49.366;8.530;2023-02-28T09:13:19;6.23;;;3.63;;
5801;SDS011;2927;49.366;8.530;2023-02-28T09:15:45;4.70;;;4.10;;
5801;SDS011;2927;49.366;8.530;2023-02-28T09:18:11;6.57;;;3.80;;
5801;SDS011;2927;49.366;8.530;2023-02-28T09:20:38;5.67;;;3.63;;
5801;SDS011;2927;49.366;8.530;2023-02-28T09:23:04;5.43;;;3.97;;
5801;SDS011;2927;49.366;8.530;2023-02-28T09:25:31;5.50;;;3.43;;
5801;SDS011;2927;49.366;8.530;2023-02-28T09:27:56;7.37;;;3.90;;
5801;SDS011;2927;49.366;8.530;2023-02-28T09:30:22;6.50;;;4.10;;
5801;SDS011;2927;49.366;8.530;2023-02-28T09:32:48;6.37;;;3.80;;
5801;SDS011;2927;49.366;8.530;2023-02-28T09:35:17;6.17;;;3.97;;
5801;SDS011;2927;49.366;8.530;2023-02-28T09:37:44;6.73;;;4.20;;
5801;SDS011;2927;49.366;8.530;2023-02-28T09:40:10;7.50;;;3.63;;
5801;SDS011;2927;49.366;8.530;2023-02-28T09:42:37;10.37;;;4.80;;
5801;SDS011;2927;49.366;8.530;2023-02-28T09:45:21;5.67;;;3.80;;
5801;SDS011;2927;49.366;8.530;2023-02-28T09:47:58;7.43;;;4.43;;
5801;SDS011;2927;49.366;8.530;2023-02-28T09:50:40;7.47;;;4.37;;
5801;SDS011;2927;49.366;8.530;2023-02-28T09:53:22;4.77;;;3.73;;
5801;SDS011;2927;49.366;8.530;2023-02-28T10:09:52;7.90;;;4.40;;
5801;SDS011;2927;49.366;8.530;2023-02-28T10:12:20;5.80;;;3.77;;
5801;SDS011;2927;49.366;8.530;2023-02-28T10:14:47;8.00;;;4.23;;
5801;SDS011;2927;49.366;8.530;2023-02-28T10:17:17;8.27;;;3.30;;
5801;SDS011;2927;49.366;8.530;2023-02-28T10:19:58;5.97;;;3.80;;
5801;SDS011;2927;49.366;8.530;2023-02-28T10:25:26;4.87;;;3.87;;
5801;SDS011;2927;49.366;8.530;2023-02-28T10:27:54;8.60;;;4.37;;
5801;SDS011;2927;49.366;8.530;2023-02-28T10:30:25;6.20;;;3.93;;
5801;SDS011;2927;49.366;8.530;2023-02-28T10:32:51;4.43;;;4.03;;
5801;SDS011;2927;49.366;8.530;2023-02-28T10:35:24;6.40;;;4.07;;
5801;SDS011;2927;49.366;8.530;2023-02-28T10:37:55;11.90;;;5.53;;
5801;SDS011;2927;49.366;8.530;2023-02-28T10:43:02;6.40;;;4.23;;
5801;SDS011;2927;49.366;8.530;2023-02-28T10:45:31;7.33;;;4.13;;
5801;SDS011;2927;49.366;8.530;2023-02-28T10:55:45;5.83;;;3.50;;
5801;SDS011;2927;49.366;8.530;2023-02-28T10:58:25;7.60;;;4.50;;
5801;SDS011;2927;49.366;8.530;2023-02-28T11:00:52;7.17;;;4.53;;
5801;SDS011;2927;49.366;8.530;2023-02-28T11:03:23;10.07;;;4.47;;
5801;SDS011;2927;49.366;8.530;2023-02-28T11:06:04;7.00;;;4.57;;
5801;SDS011;2927;49.366;8.530;2023-02-28T11:08:31;10.80;;;5.10;;
5801;SDS011;2927;49.366;8.530;2023-02-28T11:10:58;8.87;;;4.83;;
5801;SDS011;2927;49.366;8.530;2023-02-28T11:13:33;8.03;;;5.03;;
5801;SDS011;2927;49.366;8.530;2023-02-28T11:16:03;6.13;;;3.97;;
5801;SDS011;2927;49.366;8.530;2023-02-28T11:18:34;7.83;;;4.73;;
5801;SDS011;2927;49.366;8.530;2023-02-28T11:21:01;6.87;;;4.47;;
5801;SDS011;2927;49.366;8.530;2023-02-28T11:23:29;7.17;;;4.00;;
5801;SDS011;2927;49.366;8.530;2023-02-28T11:25:58;5.97;;;4.07;;
5801;SDS011;2927;49.366;8.530;2023-02-28T11:28:30;4.93;;;3.93;;
5801;SDS011;2927;49.366;8.530;2023-02-28T11:33:30;5.77;;;4.20;;
5801;SDS011;2927;49.366;8.530;2023-02-28T11:36:24;7.60;;;4.10;;
5801;SDS011;2927;49.366;8.530;2023-02-28T11:38:53;7.10;;;4.80;;
5801;SDS011;2927;49.366;8.530;2023-02-28T11:41:33;4.50;;;3.07;;
5801;SDS011;2927;49.366;8.530;2023-02-28T11:47:14;6.33;;;5.10;;
5801;SDS011;2927;49.366;8.530;2023-02-28T11:55:23;5.77;;;3.87;;
5801;SDS011;2927;49.366;8.530;2023-02-28T11:57:56;9.13;;;4.20;;
5801;SDS011;2927;49.366;8.530;2023-02-28T12:06:13;7.20;;;4.80;;
5801;SDS011;2927;49.366;8.530;2023-02-28T12:11:50;9.93;;;5.50;;
5801;SDS011;2927;49.366;8.530;2023-02-28T12:23:21;5.80;;;4.37;;
5801;SDS011;2927;49.366;8.530;2023-02-28T12:28:48;6.30;;;4.13;;
5801;SDS011;2927;49.366;8.530;2023-02-28T12:31:20;7.67;;;5.57;;
5801;SDS011;2927;49.366;8.530;2023-02-28T12:33:53;9.13;;;4.70;;
5801;SDS011;2927;49.366;8.530;2023-02-28T12:36:24;7.03;;;4.20;;
5801;SDS011;2927;49.366;8.530;2023-02-28T12:41:41;9.27;;;4.20;;
5801;SDS011;2927;49.366;8.530;2023-02-28T12:44:35;9.03;;;6.30;;
5801;SDS011;2927;49.366;8.530;2023-02-28T12:47:10;9.40;;;4.30;;
5801;SDS011;2927;49.366;8.530;2023-02-28T12:49:42;6.20;;;4.63;;
5801;SDS011;2927;49.366;8.530;2023-02-28T12:52:22;5.20;;;3.87;;
5801;SDS011;2927;49.366;8.530;2023-02-28T12:54:56;7.97;;;4.70;;
5801;SDS011;2927;49.366;8.530;2023-02-28T12:57:45;6.70;;;4.80;;
5801;SDS011;2927;49.366;8.530;2023-02-28T13:00:19;8.50;;;5.30;;
5801;SDS011;2927;49.366;8.530;2023-02-28T13:05:56;11.83;;;5.40;;
5801;SDS011;2927;49.366;8.530;2023-02-28T13:11:43;9.37;;;4.90;;
5801;SDS011;2927;49.366;8.530;2023-02-28T13:14:26;8.07;;;5.60;;
5801;SDS011;2927;49.366;8.530;2023-02-28T13:16:56;7.60;;;5.00;;
5801;SDS011;2927;49.366;8.530;2023-02-28T13:19:28;9.50;;;6.60;;
5801;SDS011;2927;49.366;8.530;2023-02-28T13:21:57;9.63;;;5.40;;
5801;SDS011;2927;49.366;8.530;2023-02-28T13:29:40;8.60;;;5.00;;
5801;SDS011;2927;49.366;8.530;2023-02-28T13:34:35;9.80;;;5.30;;
5801;SDS011;2927;49.366;8.530;2023-02-28T13:39:53;14.47;;;6.60;;
5801;SDS011;2927;49.366;8.530;2023-02-28T13:42:36;9.40;;;4.90;;
5801;SDS011;2927;49.366;8.530;2023-02-28T13:47:44;12.37;;;5.43;;
5801;SDS011;2927;49.366;8.530;2023-02-28T13:52:49;7.60;;;5.20;;
5801;SDS011;2927;49.366;8.530;2023-02-28T13:58:16;11.63;;;6.57;;
5801;SDS011;2927;49.366;8.530;2023-02-28T14:03:32;9.00;;;6.13;;
5801;SDS011;2927;49.366;8.530;2023-02-28T14:08:55;10.83;;;6.50;;
5801;SDS011;2927;49.366;8.530;2023-02-28T14:11:28;12.17;;;6.50;;
5801;SDS011;2927;49.366;8.530;2023-02-28T14:13:58;10.73;;;5.43;;
5801;SDS011;2927;49.366;8.530;2023-02-28T14:16:26;9.90;;;5.70;;
5801;SDS011;2927;49.366;8.530;2023-02-28T14:19:44;12.10;;;6.47;;
5801;SDS011;2927;49.366;8.530;2023-02-28T14:27:58;10.07;;;5.63;;
5801;SDS011;2927;49.366;8.530;2023-02-28T14:38:27;5.80;;;5.20;;
5801;SDS011;2927;49.366;8.530;2023-02-28T14:40:57;10.40;;;6.20;;
5801;SDS011;2927;49.366;8.530;2023-02-28T14:43:26;8.80;;;5.20;;
5801;SDS011;2927;49.366;8.530;2023-02-28T14:45:57;9.97;;;5.57;;
5801;SDS011;2927;49.366;8.530;2023-02-28T14:48:24;7.07;;;4.87;;
5801;SDS011;2927;49.366;8.530;2023-02-28T14:50:52;9.43;;;5.30;;
5801;SDS011;2927;49.366;8.530;2023-02-28T14:53:21;9.77;;;5.80;;
5801;SDS011;2927;49.366;8.530;2023-02-28T14:55:48;9.20;;;6.20;;
5801;SDS011;2927;49.366;8.530;2023-02-28T14:58:33;9.20;;;6.20;;
5801;SDS011;2927;49.366;8.530;2023-02-28T15:01:00;11.83;;;6.77;;
5801;SDS011;2927;49.366;8.530;2023-02-28T15:03:34;11.07;;;6.17;;
5801;SDS011;2927;49.366;8.530;2023-02-28T15:06:19;10.93;;;6.50;;
5801;SDS011;2927;49.366;8.530;2023-02-28T15:08:45;7.60;;;5.20;;
5801;SDS011;2927;49.366;8.530;2023-02-28T15:11:15;10.83;;;5.60;;
5801;SDS011;2927;49.366;8.530;2023-02-28T15:13:53;7.23;;;5.13;;
5801;SDS011;2927;49.366;8.530;2023-02-28T15:19:07;11.83;;;5.00;;
5801;SDS011;2927;49.366;8.530;2023-02-28T15:21:41;6.43;;;4.63;;
5801;SDS011;2927;49.366;8.530;2023-02-28T15:24:13;8.40;;;5.47;;
5801;SDS011;2927;49.366;8.530;2023-02-28T15:26:57;10.87;;;6.10;;
5801;SDS011;2927;49.366;8.530;2023-02-28T15:29:25;8.90;;;5.13;;
5801;SDS011;2927;49.366;8.530;2023-02-28T15:31:58;11.27;;;5.87;;
5801;SDS011;2927;49.366;8.530;2023-02-28T15:34:27;7.20;;;5.40;;
5801;SDS011;2927;49.366;8.530;2023-02-28T15:37:06;8.10;;;5.03;;
5801;SDS011;2927;49.366;8.530;2023-02-28T15:39:51;9.50;;;5.50;;
5801;SDS011;2927;49.366;8.530;2023-02-28T15:42:21;13.63;;;6.57;;
5801;SDS011;2927;49.366;8.530;2023-02-28T15:44:47;9.40;;;5.97;;
5801;SDS011;2927;49.366;8.530;2023-02-28T15:47:20;11.10;;;6.60;;
5801;SDS011;2927;49.366;8.530;2023-02-28T15:49:49;7.93;;;6.10;;
5801;SDS011;2927;49.366;8.530;2023-02-28T15:52:19;11.53;;;6.37;;
5801;SDS011;2927;49.366;8.530;2023-02-28T15:54:52;11.70;;;6.30;;
5801;SDS011;2927;49.366;8.530;2023-02-28T15:57:20;10.63;;;6.03;;
5801;SDS011;2927;49.366;8.530;2023-02-28T15:59:58;10.20;;;5.70;;
5801;SDS011;2927;49.366;8.530;2023-02-28T16:02:30;24.13;;;7.10;;
5801;SDS011;2927;49.366;8.530;2023-02-28T16:04:58;12.50;;;6.40;;
5801;SDS011;2927;49.366;8.530;2023-02-28T16:07:30;10.27;;;6.10;;
5801;SDS011;2927;49.366;8.530;2023-02-28T16:09:56;10.83;;;6.37;;
5801;SDS011;2927;49.366;8.530;2023-02-28T16:12:24;7.20;;;5.53;;
5801;SDS011;2927;49.366;8.530;2023-02-28T16:14:52;9.37;;;6.43;;
5801;SDS011;2927;49.366;8.530;2023-02-28T16:17:23;9.13;;;5.70;;
5801;SDS011;2927;49.366;8.530;2023-02-28T16:19:51;10.00;;;6.13;;
5801;SDS011;2927;49.366;8.530;2023-02-28T16:22:17;8.97;;;6.20;;
5801;SDS011;2927;49.366;8.530;2023-02-28T16:24:42;11.57;;;5.47;;
5801;SDS011;2927;49.366;8.530;2023-02-28T16:27:31;11.00;;;6.53;;
5801;SDS011;2927;49.366;8.530;2023-02-28T16:30:00;11.40;;;5.60;;
5801;SDS011;2927;49.366;8.530;2023-02-28T16:32:26;11.60;;;7.07;;
5801;SDS011;2927;49.366;8.530;2023-02-28T16:34:51;9.70;;;5.27;;
5801;SDS011;2927;49.366;8.530;2023-02-28T16:37:17;11.03;;;6.13;;
5801;SDS011;2927;49.366;8.530;2023-02-28T16:39:43;11.83;;;6.50;;
5801;SDS011;2927;49.366;8.530;2023-02-28T16:42:11;7.07;;;4.00;;
5801;SDS011;2927;49.366;8.530;2023-02-28T16:44:49;11.47;;;5.50;;
5801;SDS011;2927;49.366;8.530;2023-02-28T16:47:15;11.37;;;5.97;;
5801;SDS011;2927;49.366;8.530;2023-02-28T16:49:42;15.73;;;7.80;;
5801;SDS011;2927;49.366;8.530;2023-02-28T16:52:10;6.60;;;5.20;;
5801;SDS011;2927;49.366;8.530;2023-02-28T16:54:36;9.57;;;5.20;;
5801;SDS011;2927;49.366;8.530;2023-02-28T16:57:03;9.43;;;5.60;;
5801;SDS011;2927;49.366;8.530;2023-02-28T16:59:29;11.17;;;6.30;;
5801;SDS011;2927;49.366;8.530;2023-02-28T17:01:56;10.40;;;5.77;;
5801;SDS011;2927;49.366;8.530;2023-02-28T17:04:25;11.00;;;5.53;;
5801;SDS011;2927;49.366;8.530;2023-02-28T17:06:51;10.63;;;5.97;;
5801;SDS011;2927;49.366;8.530;2023-02-28T17:09:18;9.97;;;6.07;;
5801;SDS011;2927;49.366;8.530;2023-02-28T17:11:46;16.73;;;5.90;;
5801;SDS011;2927;49.366;8.530;2023-02-28T17:14:12;11.50;;;6.13;;
5801;SDS011;2927;49.366;8.530;2023-02-28T17:16:39;11.40;;;5.60;;
5801;SDS011;2927;49.366;8.530;2023-02-28T17:19:05;14.67;;;6.20;;
5801;SDS011;2927;49.366;8.530;2023-02-28T17:21:35;10.07;;;6.50;;
5801;SDS011;2927;49.366;8.530;2023-02-28T17:24:02;14.27;;;6.33;;
5801;SDS011;2927;49.366;8.530;2023-02-28T17:26:28;8.77;;;5.93;;
5801;SDS011;2927;49.366;8.530;2023-02-28T17:28:54;11.90;;;6.57;;
5801;SDS011;2927;49.366;8.530;2023-02-28T17:31:22;10.67;;;5.83;;
5801;SDS011;2927;49.366;8.530;2023-02-28T17:33:48;12.57;;;6.50;;
5801;SDS011;2927;49.366;8.530;2023-02-28T17:36:15;11.20;;;6.90;;
5801;SDS011;2927;49.366;8.530;2023-02-28T17:38:46;13.43;;;7.43;;
5801;SDS011;2927;49.366;8.530;2023-02-28T17:41:12;12.63;;;6.67;;
5801;SDS011;2927;49.366;8.530;2023-02-28T17:43:38;10.20;;;6.60;;